Time,TemperatureF,DewpointF,PressureIn,WindDirection,WindDirectionDegrees,WindSpeedMPH,WindSpeedGustMPH,Humidity,HourlyPrecipIn,Conditions,Clouds,dailyrainin,SoftwareType,DateUTC
2013-07-31 00:03:00,54.7,49.6,29.62,South,180,0.0,0.0,83,0.00,CLR,OVC,0.00,WeatherDisplay:10.37,2013-07-30 14:03:00,
2013-07-31 00:08:00,54.5,49.4,29.62,WSW,248,0.0,0.0,83,0.00,CLR,OVC,0.00,WeatherDisplay:10.37,2013-07-30 14:08:00,
2013-07-31 00:13:00,54.7,49.6,29.62,SSW,202,0.0,0.0,83,0.00,CLR,OVC,0.00,WeatherDisplay:10.37,2013-07-30 14:13:00,
2013-07-31 00:18:00,54.7,49.6,29.62,SW,225,0.0,0.0,83,0.00,CLR,OVC,0.00,WeatherDisplay:10.37,2013-07-30 14:18:00,
2013-07-31 00:23:00,54.7,49.6,29.62,South,180,0.0,0.0,83,0.00,CLR,OVC,0.00,WeatherDisplay:10.37,2013-07-30 14:23:00,
2013-07-31 00:28:00,54.7,49.6,29.62,West,270,0.0,0.0,83,0.00,CLR,OVC,0.00,WeatherDisplay:10.37,2013-07-30 14:28:00,
2013-07-31 00:33:00,54.5,49.1,29.62,West,270,0.0,0.0,82,0.00,CLR,OVC,0.00,WeatherDisplay:10.37,2013-07-30 14:33:00,
2013-07-31 00:38:00,54.7,49.6,29.62,West,270,0.0,0.0,83,0.00,CLR,OVC,0.00,WeatherDisplay:10.37,2013-07-30 14:38:00,
2013-07-31 00:43:00,54.7,49.6,29.62,WNW,292,2.3,0.0,83,0.00,CLR,OVC,0.00,WeatherDisplay:10.37,2013-07-30 14:43:00,
2013-07-31 00:48:00,54.5,49.4,29.65,West,270,0.0,0.0,83,0.00,CLR,OVC,0.00,WeatherDisplay:10.37,2013-07-30 14:48:00,
2013-07-31 00:53:00,54.5,49.4,29.65,WSW,248,0.0,0.0,83,0.00,CLR,OVC,0.00,WeatherDisplay:10.37,2013-07-30 14:53:00,
2013-07-31 00:58:00,54.7,49.6,29.65,WNW,292,0.0,0.0,83,0.00,CLR,OVC,0.00,WeatherDisplay:10.37,2013-07-30 14:58:00,
2013-07-31 01:03:00,54.7,49.9,29.65,West,270,0.0,0.0,84,0.00,CLR,OVC,0.00,WeatherDisplay:10.37,2013-07-30 15:03:00,
2013-07-31 01:08:00,54.7,49.9,29.65,WNW,292,3.5,3.5,84,0.00,CLR,OVC,0.00,WeatherDisplay:10.37,2013-07-30 15:08:00,
2013-07-31 01:13:00,54.7,49.9,29.65,NW,315,1.2,1.2,84,0.00,CLR,OVC,0.00,WeatherDisplay:10.37,2013-07-30 15:13:00,
2013-07-31 01:18:00,54.7,49.9,29.62,West,270,0.0,0.0,84,0.00,CLR,OVC,0.00,WeatherDisplay:10.37,2013-07-30 15:18:00,
2013-07-31 01:23:00,54.7,49.9,29.62,WNW,292,2.3,2.3,84,0.00,CLR,OVC,0.00,WeatherDisplay:10.37,2013-07-30 15:23:00,
2013-07-31 01:28:00,54.7,49.9,29.62,West,270,0.0,0.0,84,0.00,CLR,OVC,0.00,WeatherDisplay:10.37,2013-07-30 15:28:00,
2013-07-31 01:33:00,54.7,50.3,29.65,NW,315,0.0,0.0,85,0.00,CLR,OVC,0.00,WeatherDisplay:10.37,2013-07-30 15:33:00,
2013-07-31 01:38:00,54.7,50.3,29.65,NW,315,2.3,0.0,85,0.00,CLR,OVC,0.00,WeatherDisplay:10.37,2013-07-30 15:38:00,
2013-07-31 01:43:00,54.7,50.3,29.65,NW,315,1.2,0.0,85,0.00,CLR,OVC,0.00,WeatherDisplay:10.37,2013-07-30 15:43:00,
2013-07-31 01:48:00,54.7,50.3,29.65,NNW,338,0.0,0.0,85,0.00,CLR,OVC,0.00,WeatherDisplay:10.37,2013-07-30 15:48:00,
2013-07-31 01:53:00,54.7,50.3,29.65,NW,315,0.0,0.0,85,0.00,CLR,OVC,0.00,WeatherDisplay:10.37,2013-07-30 15:53:00,
2013-07-31 01:58:00,54.7,50.3,29.65,NNE,22,0.0,0.0,85,0.00,CLR,OVC,0.00,WeatherDisplay:10.37,2013-07-30 15:58:00,
2013-07-31 02:03:00,54.7,50.3,29.65,WNW,292,2.3,2.3,85,0.00,CLR,OVC,0.00,WeatherDisplay:10.37,2013-07-30 16:03:00,
2013-07-31 02:08:00,54.7,50.3,29.65,WNW,292,2.4,2.4,85,0.00,CLR,OVC,0.00,WeatherDisplay:10.37,2013-07-30 16:08:00,
2013-07-31 02:13:00,54.7,50.3,29.65,West,270,4.6,4.6,85,0.00,CLR,OVC,0.00,WeatherDisplay:10.37,2013-07-30 16:13:00,
2013-07-31 02:18:00,54.7,50.3,29.65,NW,315,3.5,3.5,85,0.00,CLR,OVC,0.00,WeatherDisplay:10.37,2013-07-30 16:18:00,
2013-07-31 02:23:00,54.7,50.3,29.65,WNW,292,2.3,2.3,85,0.00,CLR,OVC,0.00,WeatherDisplay:10.37,2013-07-30 16:23:00,
2013-07-31 02:28:00,54.7,50.3,29.65,WSW,248,1.2,1.2,85,0.00,CLR,OVC,0.00,WeatherDisplay:10.37,2013-07-30 16:28:00,
2013-07-31 02:33:00,54.7,50.3,29.65,NNE,22,1.2,0.0,85,0.00,CLR,OVC,0.00,WeatherDisplay:10.37,2013-07-30 16:33:00,
2013-07-31 02:38:00,54.7,50.3,29.65,ENE,68,0.0,0.0,85,0.00,CLR,OVC,0.00,WeatherDisplay:10.37,2013-07-30 16:38:00,
2013-07-31 02:43:00,54.7,50.3,29.65,South,180,0.0,0.0,85,0.00,CLR,OVC,0.00,WeatherDisplay:10.37,2013-07-30 16:43:00,
2013-07-31 02:48:00,54.7,50.3,29.65,WNW,292,2.3,2.3,85,0.00,CLR,OVC,0.00,WeatherDisplay:10.37,2013-07-30 16:48:00,
2013-07-31 02:53:00,54.7,50.3,29.65,WNW,292,0.0,0.0,85,0.00,CLR,OVC,0.00,WeatherDisplay:10.37,2013-07-30 16:53:00,
2013-07-31 02:58:00,54.7,50.6,29.65,WNW,292,1.2,0.0,86,0.00,CLR,OVC,0.00,WeatherDisplay:10.37,2013-07-30 16:58:00,
2013-07-31 03:03:00,54.5,50.4,29.65,WNW,292,1.2,0.0,86,0.00,CLR,OVC,0.00,WeatherDisplay:10.37,2013-07-30 17:03:00,
2013-07-31 03:08:00,54.5,50.1,29.65,WNW,292,0.0,0.0,85,0.00,CLR,OVC,0.00,WeatherDisplay:10.37,2013-07-30 17:08:00,
2013-07-31 03:13:00,54.7,50.3,29.65,West,270,0.0,0.0,85,0.00,CLR,OVC,0.00,WeatherDisplay:10.37,2013-07-30 17:13:00,
2013-07-31 03:18:00,54.7,50.3,29.65,West,270,0.0,0.0,85,0.00,CLR,OVC,0.00,WeatherDisplay:10.37,2013-07-30 17:18:00,
2013-07-31 03:23:00,54.7,50.3,29.65,South,180,0.0,0.0,85,0.00,CLR,OVC,0.00,WeatherDisplay:10.37,2013-07-30 17:23:00,
2013-07-31 03:28:00,54.7,50.3,29.65,WNW,292,0.0,0.0,85,0.00,CLR,OVC,0.00,WeatherDisplay:10.37,2013-07-30 17:28:00,
2013-07-31 03:33:00,54.7,50.3,29.68,West,270,0.0,0.0,85,0.00,CLR,OVC,0.00,WeatherDisplay:10.37,2013-07-30 17:33:00,
2013-07-31 03:38:00,54.7,50.3,29.68,WNW,292,0.0,0.0,85,0.00,CLR,OVC,0.00,WeatherDisplay:10.37,2013-07-30 17:38:00,
2013-07-31 03:43:00,54.5,50.1,29.68,West,270,0.0,0.0,85,0.00,CLR,OVC,0.00,WeatherDisplay:10.37,2013-07-30 17:43:00,
2013-07-31 03:48:00,54.5,50.1,29.65,NW,315,1.2,0.0,85,0.00,CLR,OVC,0.00,WeatherDisplay:10.37,2013-07-30 17:48:00,
2013-07-31 03:53:00,54.7,50.3,29.65,WNW,292,2.3,2.3,85,0.00,CLR,OVC,0.00,WeatherDisplay:10.37,2013-07-30 17:53:00,
2013-07-31 03:58:00,54.7,50.3,29.65,West,270,1.2,0.0,85,0.00,CLR,OVC,0.00,WeatherDisplay:10.37,2013-07-30 17:58:00,
2013-07-31 04:03:00,54.5,50.1,29.65,WSW,248,0.0,0.0,85,0.00,CLR,OVC,0.00,WeatherDisplay:10.37,2013-07-30 18:03:00,
2013-07-31 04:08:00,54.5,50.1,29.65,SW,225,1.2,0.0,85,0.00,CLR,OVC,0.00,WeatherDisplay:10.37,2013-07-30 18:08:00,
2013-07-31 04:13:00,54.7,50.3,29.68,West,270,0.0,0.0,85,0.00,CLR,OVC,0.00,WeatherDisplay:10.37,2013-07-30 18:13:00,
2013-07-31 04:18:00,54.5,50.1,29.68,NW,315,0.0,0.0,85,0.00,CLR,OVC,0.00,WeatherDisplay:10.37,2013-07-30 18:18:00,
2013-07-31 04:23:00,54.7,50.3,29.68,West,270,0.0,0.0,85,0.00,CLR,OVC,0.00,WeatherDisplay:10.37,2013-07-30 18:23:00,
2013-07-31 04:28:00,54.5,50.1,29.68,SSW,202,0.0,0.0,85,0.00,CLR,OVC,0.00,WeatherDisplay:10.37,2013-07-30 18:28:00,
2013-07-31 04:33:00,54.5,50.1,29.68,SSE,158,0.0,0.0,85,0.00,CLR,OVC,0.00,WeatherDisplay:10.37,2013-07-30 18:33:00,
2013-07-31 04:38:00,54.5,50.1,29.68,WSW,248,1.2,0.0,85,0.00,CLR,OVC,0.00,WeatherDisplay:10.37,2013-07-30 18:38:00,
2013-07-31 04:43:00,54.5,50.1,29.68,South,180,0.0,0.0,85,0.00,CLR,OVC,0.00,WeatherDisplay:10.37,2013-07-30 18:43:00,
2013-07-31 04:48:00,54.5,50.1,29.68,WNW,292,3.5,3.5,85,0.00,CLR,OVC,0.00,WeatherDisplay:10.37,2013-07-30 18:48:00,
2013-07-31 04:53:00,54.5,50.1,29.68,WSW,248,1.2,0.0,85,0.00,CLR,OVC,0.00,WeatherDisplay:10.37,2013-07-30 18:53:00,
2013-07-31 04:58:00,54.5,50.1,29.68,WNW,292,3.5,3.5,85,0.00,CLR,OVC,0.00,WeatherDisplay:10.37,2013-07-30 18:58:00,
2013-07-31 05:03:00,54.5,50.1,29.68,WNW,292,0.0,0.0,85,0.00,CLR,OVC,0.00,WeatherDisplay:10.37,2013-07-30 19:03:00,
2013-07-31 05:08:00,54.3,49.9,29.68,SSW,202,2.3,2.3,85,0.00,CLR,OVC,0.00,WeatherDisplay:10.37,2013-07-30 19:08:00,
2013-07-31 05:13:00,54.3,49.9,29.68,SSE,158,2.0,2.0,85,0.00,CLR,OVC,0.00,WeatherDisplay:10.37,2013-07-30 19:13:00,
2013-07-31 05:18:00,54.3,49.9,29.68,SW,225,0.0,0.0,85,0.00,CLR,OVC,0.00,WeatherDisplay:10.37,2013-07-30 19:18:00,
2013-07-31 05:23:00,54.1,49.7,29.68,NW,315,1.2,0.0,85,0.00,CLR,OVC,0.00,WeatherDisplay:10.37,2013-07-30 19:23:00,
2013-07-31 05:28:00,54.1,49.7,29.68,NNW,338,0.0,0.0,85,0.00,CLR,OVC,0.00,WeatherDisplay:10.37,2013-07-30 19:28:00,
2013-07-31 05:33:00,54.1,49.7,29.68,NE,45,0.0,0.0,85,0.00,CLR,OVC,0.00,WeatherDisplay:10.37,2013-07-30 19:33:00,
2013-07-31 05:38:00,54.1,49.7,29.68,West,270,0.9,0.0,85,0.00,CLR,OVC,0.00,WeatherDisplay:10.37,2013-07-30 19:38:00,
2013-07-31 05:43:00,54.3,49.9,29.68,SW,225,2.3,0.0,85,0.00,CLR,OVC,0.00,WeatherDisplay:10.37,2013-07-30 19:43:00,
2013-07-31 05:49:00,54.3,49.9,29.68,WSW,248,2.0,0.0,85,0.00,CLR,OVC,0.00,WeatherDisplay:10.37,2013-07-30 19:49:00,
2013-07-31 05:54:00,54.3,49.9,29.68,SSW,202,0.0,0.0,85,0.00,CLR,OVC,0.00,WeatherDisplay:10.37,2013-07-30 19:54:00,
2013-07-31 05:59:00,54.3,49.9,29.68,WNW,292,2.9,0.0,85,0.00,CLR,OVC,0.00,WeatherDisplay:10.37,2013-07-30 19:59:00,
2013-07-31 06:04:00,54.3,49.9,29.68,NNW,338,3.5,3.5,85,0.00,CLR,OVC,0.00,WeatherDisplay:10.37,2013-07-30 20:04:00,
2013-07-31 06:09:00,54.3,49.9,29.68,WNW,292,3.5,3.5,85,0.00,CLR,OVC,0.00,WeatherDisplay:10.37,2013-07-30 20:09:00,
2013-07-31 06:14:00,54.3,49.9,29.68,WSW,248,1.2,1.4,85,0.00,CLR,OVC,0.00,WeatherDisplay:10.37,2013-07-30 20:14:00,
2013-07-31 06:19:00,54.3,49.9,29.68,NNW,338,0.0,0.9,85,0.00,CLR,OVC,0.00,WeatherDisplay:10.37,2013-07-30 20:19:00,
2013-07-31 06:24:00,54.3,49.9,29.68,SW,225,3.5,3.5,85,0.00,CLR,OVC,0.00,WeatherDisplay:10.37,2013-07-30 20:24:00,
2013-07-31 06:29:00,54.3,49.9,29.68,WNW,292,1.2,0.0,85,0.00,CLR,OVC,0.00,WeatherDisplay:10.37,2013-07-30 20:29:00,
2013-07-31 06:34:00,54.3,49.9,29.68,WNW,292,0.0,0.0,85,0.00,CLR,OVC,0.00,WeatherDisplay:10.37,2013-07-30 20:34:00,
2013-07-31 06:39:00,54.3,49.9,29.68,South,180,0.0,0.0,85,0.00,CLR,OVC,0.00,WeatherDisplay:10.37,2013-07-30 20:39:00,
2013-07-31 06:44:00,54.3,49.9,29.71,WNW,292,2.3,2.3,85,0.00,CLR,OVC,0.00,WeatherDisplay:10.37,2013-07-30 20:44:00,
2013-07-31 06:49:00,54.1,49.7,29.71,NNW,338,0.0,0.0,85,0.00,CLR,OVC,0.00,WeatherDisplay:10.37,2013-07-30 20:49:00,
2013-07-31 06:54:00,54.3,50.2,29.71,North,0,0.0,0.0,86,0.00,CLR,OVC,0.00,WeatherDisplay:10.37,2013-07-30 20:54:00,
2013-07-31 06:59:00,54.1,50.0,29.71,WNW,292,3.5,3.5,86,0.00,CLR,OVC,0.00,WeatherDisplay:10.37,2013-07-30 20:59:00,
2013-07-31 07:04:00,54.3,49.9,29.71,West,270,0.0,0.0,85,0.00,CLR,OVC,0.00,WeatherDisplay:10.37,2013-07-30 21:04:00,
2013-07-31 07:09:00,54.3,49.9,29.71,SSW,202,0.0,0.0,85,0.00,CLR,OVC,0.00,WeatherDisplay:10.37,2013-07-30 21:09:00,
2013-07-31 07:14:00,54.3,49.9,29.71,WNW,292,0.0,0.0,85,0.00,CLR,OVC,0.00,WeatherDisplay:10.37,2013-07-30 21:14:00,
2013-07-31 07:19:00,54.3,49.9,29.71,WSW,248,0.0,0.0,85,0.00,CLR,OVC,0.00,WeatherDisplay:10.37,2013-07-30 21:19:00,
2013-07-31 07:24:00,54.3,49.9,29.71,WNW,292,2.9,2.9,85,0.00,CLR,OVC,0.00,WeatherDisplay:10.37,2013-07-30 21:24:00,
2013-07-31 07:29:00,54.3,49.9,29.71,WNW,292,0.0,0.0,85,0.00,CLR,OVC,0.00,WeatherDisplay:10.37,2013-07-30 21:29:00,
2013-07-31 07:34:00,54.3,49.9,29.71,SSW,202,0.0,0.0,85,0.00,CLR,OVC,0.00,WeatherDisplay:10.37,2013-07-30 21:34:00,
2013-07-31 07:39:00,54.5,50.1,29.71,WNW,292,2.3,2.3,85,0.00,CLR,OVC,0.00,WeatherDisplay:10.37,2013-07-30 21:39:00,
2013-07-31 07:44:00,54.5,50.1,29.74,SSW,202,0.0,0.0,85,0.00,CLR,OVC,0.00,WeatherDisplay:10.37,2013-07-30 21:44:00,
2013-07-31 07:49:00,54.5,50.1,29.74,WSW,248,0.0,0.0,85,0.00,CLR,OVC,0.00,WeatherDisplay:10.37,2013-07-30 21:49:00,
2013-07-31 07:54:00,54.5,50.1,29.74,WNW,292,0.0,0.0,85,0.00,CLR,OVC,0.00,WeatherDisplay:10.37,2013-07-30 21:54:00,
2013-07-31 07:59:00,54.5,50.1,29.74,WSW,248,0.0,0.0,85,0.00,CLR,OVC,0.00,WeatherDisplay:10.37,2013-07-30 21:59:00,
2013-07-31 08:04:00,54.7,50.3,29.74,NW,315,0.0,0.0,85,0.00,CLR,OVC,0.00,WeatherDisplay:10.37,2013-07-30 22:04:00,
2013-07-31 08:09:00,54.7,50.3,29.74,NW,315,0.0,0.0,85,0.00,CLR,OVC,0.00,WeatherDisplay:10.37,2013-07-30 22:09:00,
2013-07-31 08:14:00,54.7,50.3,29.74,NW,315,0.0,0.0,85,0.00,CLR,OVC,0.00,WeatherDisplay:10.37,2013-07-30 22:14:00,
2013-07-31 08:19:00,54.7,50.3,29.74,West,270,0.0,0.0,85,0.00,CLR,OVC,0.00,WeatherDisplay:10.37,2013-07-30 22:19:00,
2013-07-31 08:24:00,54.9,50.4,29.74,West,270,0.0,0.0,85,0.00,CLR,OVC,0.00,WeatherDisplay:10.37,2013-07-30 22:24:00,
2013-07-31 08:29:00,54.9,50.4,29.77,WNW,292,0.0,0.0,85,0.00,CLR,OVC,0.00,WeatherDisplay:10.37,2013-07-30 22:29:00,
2013-07-31 08:34:00,55.0,50.6,29.77,West,270,2.3,2.3,85,0.00,CLR,OVC,0.00,WeatherDisplay:10.37,2013-07-30 22:34:00,
2013-07-31 08:39:00,55.4,51.0,29.77,WNW,292,3.5,3.5,85,0.00,CLR,OVC,0.00,WeatherDisplay:10.37,2013-07-30 22:39:00,
2013-07-31 08:44:00,55.6,51.5,29.74,WNW,292,4.6,4.6,86,0.00,CLR,OVC,0.00,WeatherDisplay:10.37,2013-07-30 22:44:00,
2013-07-31 08:49:00,55.8,51.6,29.74,West,270,2.3,2.3,86,0.00,CLR,OVC,0.00,WeatherDisplay:10.37,2013-07-30 22:49:00,
2013-07-31 08:54:00,55.8,51.6,29.74,WNW,292,0.0,0.0,86,0.00,CLR,OVC,0.00,WeatherDisplay:10.37,2013-07-30 22:54:00,
2013-07-31 08:59:00,55.8,51.6,29.74,WNW,292,0.0,0.0,86,0.00,CLR,OVC,0.00,WeatherDisplay:10.37,2013-07-30 22:59:00,
2013-07-31 09:04:00,55.9,51.8,29.74,South,180,0.0,0.0,86,0.00,CLR,OVC,0.00,WeatherDisplay:10.37,2013-07-30 23:04:00,
2013-07-31 09:09:00,56.1,52.0,29.74,WNW,292,3.1,3.1,86,0.00,CLR,OVC,0.00,WeatherDisplay:10.37,2013-07-30 23:09:00,
2013-07-31 09:14:00,56.1,51.7,29.74,ESE,112,2.3,0.0,85,0.00,CLR,OVC,0.00,WeatherDisplay:10.37,2013-07-30 23:14:00,
2013-07-31 09:19:00,56.3,51.8,29.74,NW,315,2.0,2.0,85,0.00,CLR,OVC,0.00,WeatherDisplay:10.37,2013-07-30 23:19:00,
2013-07-31 09:24:00,56.3,52.2,29.74,ENE,68,0.0,0.0,86,0.00,CLR,OVC,0.00,WeatherDisplay:10.37,2013-07-30 23:24:00,
2013-07-31 09:29:00,56.5,52.3,29.74,NNE,22,0.0,0.0,86,0.00,CLR,OVC,0.00,WeatherDisplay:10.37,2013-07-30 23:29:00,
2013-07-31 09:34:00,56.3,52.2,29.74,NNW,338,0.0,0.0,86,0.00,CLR,OVC,0.00,WeatherDisplay:10.37,2013-07-30 23:34:00,
2013-07-31 09:39:00,56.3,52.2,29.74,West,270,0.0,0.0,86,0.00,CLR,OVC,0.00,WeatherDisplay:10.37,2013-07-30 23:39:00,
2013-07-31 09:44:00,56.5,52.3,29.74,WNW,292,0.0,0.0,86,0.00,CLR,OVC,0.00,WeatherDisplay:10.37,2013-07-30 23:44:00,
2013-07-31 09:49:00,56.7,52.8,29.74,West,270,2.3,2.3,87,0.00,CLR,OVC,0.00,WeatherDisplay:10.37,2013-07-30 23:49:00,
2013-07-31 09:54:00,56.7,52.8,29.74,NW,315,3.5,3.5,87,0.00,CLR,OVC,0.00,WeatherDisplay:10.37,2013-07-30 23:54:00,
2013-07-31 09:59:00,56.7,52.8,29.74,NW,315,0.0,0.0,87,0.00,CLR,OVC,0.00,WeatherDisplay:10.37,2013-07-30 23:59:00,
2013-07-31 10:04:00,56.7,52.8,29.74,WNW,292,0.0,0.0,87,0.00,CLR,OVC,0.00,WeatherDisplay:10.37,2013-07-31 00:04:00,
2013-07-31 10:09:00,56.7,53.1,29.74,WNW,292,0.0,0.0,88,0.00,CLR,OVC,0.00,WeatherDisplay:10.37,2013-07-31 00:09:00,
2013-07-31 10:14:00,56.7,53.1,29.74,West,270,0.0,0.0,88,0.00,CLR,OVC,0.00,WeatherDisplay:10.37,2013-07-31 00:14:00,
2013-07-31 10:19:00,56.8,53.3,29.74,North,0,0.0,0.0,88,0.00,CLR,OVC,0.00,WeatherDisplay:10.37,2013-07-31 00:19:00,
2013-07-31 10:24:00,56.8,53.3,29.74,WNW,292,0.0,0.0,88,0.00,CLR,OVC,0.00,WeatherDisplay:10.37,2013-07-31 00:24:00,
2013-07-31 10:29:00,57.0,53.5,29.74,WSW,248,2.3,2.3,88,0.00,CLR,OVC,0.00,WeatherDisplay:10.37,2013-07-31 00:29:00,
2013-07-31 10:34:00,57.2,53.7,29.74,West,270,1.2,0.0,88,0.00,CLR,OVC,0.00,WeatherDisplay:10.37,2013-07-31 00:34:00,
2013-07-31 10:39:00,57.6,54.0,29.74,West,270,3.1,3.1,88,0.00,CLR,OVC,0.00,WeatherDisplay:10.37,2013-07-31 00:39:00,
2013-07-31 10:44:00,57.9,54.4,29.74,SW,225,0.0,0.0,88,0.00,CLR,OVC,0.00,WeatherDisplay:10.37,2013-07-31 00:44:00,
2013-07-31 10:49:00,57.9,54.1,29.74,NNE,22,1.2,0.0,87,0.00,CLR,OVC,0.00,WeatherDisplay:10.37,2013-07-31 00:49:00,
2013-07-31 10:54:00,58.1,54.2,29.74,NNE,22,0.0,0.0,87,0.00,CLR,OVC,0.00,WeatherDisplay:10.37,2013-07-31 00:54:00,
2013-07-31 10:59:00,58.1,54.2,29.74,East,90,0.0,0.0,87,0.00,CLR,OVC,0.00,WeatherDisplay:10.37,2013-07-31 00:59:00,
2013-07-31 11:04:00,58.6,54.8,29.74,NNE,22,0.0,0.0,87,0.00,CLR,OVC,0.00,WeatherDisplay:10.37,2013-07-31 01:04:00,
2013-07-31 11:09:00,58.8,55.0,29.74,East,90,0.0,0.0,87,0.00,CLR,OVC,0.00,WeatherDisplay:10.37,2013-07-31 01:09:00,
2013-07-31 11:14:00,59.2,55.3,29.74,NE,45,1.2,0.0,87,0.00,CLR,OVC,0.00,WeatherDisplay:10.37,2013-07-31 01:14:00,
2013-07-31 11:19:00,59.5,55.3,29.74,NNE,22,0.0,0.9,86,0.00,CLR,OVC,0.00,WeatherDisplay:10.37,2013-07-31 01:19:00,
2013-07-31 11:24:00,59.5,54.7,29.74,NNE,22,0.0,0.0,84,0.00,CLR,OVC,0.00,WeatherDisplay:10.37,2013-07-31 01:24:00,
2013-07-31 11:29:00,59.5,54.7,29.71,WNW,292,3.5,0.0,84,0.00,CLR,OVC,0.00,WeatherDisplay:10.37,2013-07-31 01:29:00,
2013-07-31 11:34:00,59.5,54.4,29.71,WNW,292,2.3,2.3,83,0.00,CLR,OVC,0.00,WeatherDisplay:10.37,2013-07-31 01:34:00,
2013-07-31 11:39:00,59.7,54.5,29.71,NW,315,2.3,2.3,83,0.00,CLR,OVC,0.00,WeatherDisplay:10.37,2013-07-31 01:39:00,
2013-07-31 11:44:00,59.7,54.2,29.71,North,0,1.2,0.0,82,0.00,CLR,OVC,0.00,WeatherDisplay:10.37,2013-07-31 01:44:00,
2013-07-31 11:49:00,59.9,54.4,29.71,NNE,22,1.2,0.0,82,0.00,CLR,OVC,0.00,WeatherDisplay:10.37,2013-07-31 01:49:00,
2013-07-31 11:54:00,60.1,54.6,29.71,NNE,22,1.2,0.0,82,0.00,CLR,OVC,0.00,WeatherDisplay:10.37,2013-07-31 01:54:00,
2013-07-31 11:59:00,60.1,54.2,29.68,West,270,2.4,2.4,81,0.00,CLR,OVC,0.00,WeatherDisplay:10.37,2013-07-31 01:59:00,
2013-07-31 12:04:00,60.8,55.3,29.68,WNW,292,3.5,3.5,82,0.00,CLR,OVC,0.00,WeatherDisplay:10.37,2013-07-31 02:04:00,
2013-07-31 12:09:00,61.3,55.5,29.68,ESE,112,3.5,0.0,81,0.00,CLR,OVC,0.00,WeatherDisplay:10.37,2013-07-31 02:09:00,
2013-07-31 12:14:00,61.0,54.4,29.71,NW,315,1.2,0.0,79,0.00,CLR,OVC,0.00,WeatherDisplay:10.37,2013-07-31 02:14:00,
2013-07-31 12:19:00,60.6,54.1,29.71,NW,315,2.3,2.3,79,0.00,CLR,OVC,0.00,WeatherDisplay:10.37,2013-07-31 02:19:00,
2013-07-31 12:24:00,60.4,53.9,29.71,East,90,0.0,0.0,79,0.00,CLR,OVC,0.00,WeatherDisplay:10.37,2013-07-31 02:24:00,
2013-07-31 12:29:00,60.1,53.2,29.68,North,0,0.0,0.0,78,0.00,CLR,OVC,0.00,WeatherDisplay:10.37,2013-07-31 02:29:00,
2013-07-31 12:34:00,60.1,53.5,29.68,NE,45,0.0,0.0,79,0.00,CLR,OVC,0.00,WeatherDisplay:10.37,2013-07-31 02:34:00,
2013-07-31 12:40:00,60.1,53.5,29.68,North,0,0.0,0.0,79,0.00,CLR,OVC,0.00,WeatherDisplay:10.37,2013-07-31 02:40:00,
2013-07-31 12:45:00,60.4,53.9,29.68,NNW,338,0.0,0.0,79,0.00,CLR,OVC,0.00,WeatherDisplay:10.37,2013-07-31 02:45:00,
2013-07-31 12:50:00,60.6,54.1,29.68,SSW,202,2.3,2.3,79,0.00,CLR,OVC,0.00,WeatherDisplay:10.37,2013-07-31 02:50:00,
2013-07-31 12:55:00,60.8,54.2,29.68,South,180,0.0,0.0,79,0.00,CLR,OVC,0.00,WeatherDisplay:10.37,2013-07-31 02:55:00,
2013-07-31 13:00:00,60.6,54.1,29.65,NNW,338,3.5,3.5,79,0.00,CLR,OVC,0.00,WeatherDisplay:10.37,2013-07-31 03:00:00,
2013-07-31 13:05:00,60.8,53.9,29.65,NNW,338,3.5,0.0,78,0.00,CLR,OVC,0.00,WeatherDisplay:10.37,2013-07-31 03:05:00,
2013-07-31 13:10:00,60.8,53.9,29.65,NNE,22,0.0,0.0,78,0.00,CLR,OVC,0.00,WeatherDisplay:10.37,2013-07-31 03:10:00,
2013-07-31 13:15:00,61.0,54.4,29.68,West,270,2.4,2.4,79,0.00,CLR,OVC,0.00,WeatherDisplay:10.37,2013-07-31 03:15:00,
2013-07-31 13:20:00,61.2,54.2,29.68,East,90,3.5,3.5,78,0.00,CLR,OVC,0.00,WeatherDisplay:10.37,2013-07-31 03:20:00,
2013-07-31 13:25:00,61.0,53.7,29.68,NNW,338,1.2,0.0,77,0.00,CLR,OVC,0.00,WeatherDisplay:10.37,2013-07-31 03:25:00,
2013-07-31 13:30:00,60.8,53.5,29.65,NNE,22,0.0,0.0,77,0.00,CLR,OVC,0.00,WeatherDisplay:10.37,2013-07-31 03:30:00,
2013-07-31 13:35:00,60.8,53.9,29.65,NNE,22,0.0,0.0,78,0.00,CLR,OVC,0.00,WeatherDisplay:10.37,2013-07-31 03:35:00,
2013-07-31 13:40:00,60.4,53.5,29.65,South,180,3.5,3.5,78,0.00,CLR,OVC,0.00,WeatherDisplay:10.37,2013-07-31 03:40:00,
2013-07-31 13:45:00,60.3,53.0,29.68,NW,315,0.0,0.0,77,0.00,CLR,OVC,0.00,WeatherDisplay:10.37,2013-07-31 03:45:00,
2013-07-31 13:50:00,60.1,53.2,29.68,South,180,2.3,2.3,78,0.00,CLR,OVC,0.00,WeatherDisplay:10.37,2013-07-31 03:50:00,
2013-07-31 13:55:00,59.9,52.7,29.68,East,90,0.0,0.0,77,0.00,CLR,OVC,0.00,WeatherDisplay:10.37,2013-07-31 03:55:00,
2013-07-31 14:00:00,59.9,53.0,29.68,North,0,2.3,0.0,78,0.00,CLR,OVC,0.00,WeatherDisplay:10.37,2013-07-31 04:00:00,
2013-07-31 14:01:00,59.9,53.0,29.68,North,0,2.3,0.0,78,0.00,CLR,OVC,0.00,WeatherDisplay:10.37,2013-07-31 04:01:00,
2013-07-31 14:02:00,59.7,52.8,29.68,NNE,22,2.3,0.0,78,0.00,CLR,OVC,0.00,WeatherDisplay:10.37,2013-07-31 04:02:00,
2013-07-31 14:07:00,59.7,52.8,29.68,NNE,22,0.0,0.0,78,0.00,CLR,OVC,0.00,WeatherDisplay:10.37,2013-07-31 04:07:00,
2013-07-31 14:12:00,59.9,53.4,29.68,NNE,22,0.0,0.0,79,0.00,CLR,OVC,0.00,WeatherDisplay:10.37,2013-07-31 04:12:00,
2013-07-31 14:17:00,59.9,54.1,29.68,NE,45,0.0,0.0,81,0.00,CLR,OVC,0.00,WeatherDisplay:10.37,2013-07-31 04:17:00,
2013-07-31 14:22:00,60.1,54.2,29.68,WNW,292,0.0,0.0,81,0.00,CLR,OVC,0.00,WeatherDisplay:10.37,2013-07-31 04:22:00,
2013-07-31 14:27:00,60.1,54.2,29.68,SSE,158,3.5,3.5,81,0.00,CLR,OVC,0.00,WeatherDisplay:10.37,2013-07-31 04:27:00,
2013-07-31 14:32:00,60.4,54.6,29.68,NNE,22,2.3,2.3,81,0.00,CLR,OVC,0.00,WeatherDisplay:10.37,2013-07-31 04:32:00,
2013-07-31 14:37:00,60.4,54.2,29.68,NNE,22,0.0,0.0,80,0.00,CLR,OVC,0.00,WeatherDisplay:10.37,2013-07-31 04:37:00,
2013-07-31 14:42:00,60.6,54.1,29.68,NE,45,0.0,0.0,79,0.00,CLR,OVC,0.00,WeatherDisplay:10.37,2013-07-31 04:42:00,
2013-07-31 14:47:00,60.6,54.1,29.68,NE,45,0.0,0.0,79,0.00,CLR,OVC,0.00,WeatherDisplay:10.37,2013-07-31 04:47:00,
2013-07-31 14:52:00,60.6,54.1,29.68,NE,45,1.4,0.0,79,0.00,CLR,OVC,0.00,WeatherDisplay:10.37,2013-07-31 04:52:00,
2013-07-31 14:57:00,60.6,54.4,29.68,NNE,22,0.0,0.0,80,0.00,CLR,OVC,0.00,WeatherDisplay:10.37,2013-07-31 04:57:00,
2013-07-31 15:02:00,60.6,54.1,29.68,ENE,68,0.0,0.0,79,0.00,CLR,OVC,0.00,WeatherDisplay:10.37,2013-07-31 05:02:00,
2013-07-31 15:07:00,60.6,54.1,29.68,NE,45,0.0,0.0,79,0.00,CLR,OVC,0.00,WeatherDisplay:10.37,2013-07-31 05:07:00,
2013-07-31 15:12:00,60.4,53.9,29.68,NE,45,0.0,0.0,79,0.00,CLR,OVC,0.00,WeatherDisplay:10.37,2013-07-31 05:12:00,
2013-07-31 15:17:00,60.3,53.4,29.71,West,270,0.0,0.0,78,0.00,CLR,OVC,0.00,WeatherDisplay:10.37,2013-07-31 05:17:00,
2013-07-31 15:22:00,60.3,53.4,29.71,South,180,0.0,0.0,78,0.00,CLR,OVC,0.00,WeatherDisplay:10.37,2013-07-31 05:22:00,
2013-07-31 15:27:00,60.3,53.4,29.71,WSW,248,0.0,0.0,78,0.00,CLR,OVC,0.00,WeatherDisplay:10.37,2013-07-31 05:27:00,
2013-07-31 15:32:00,60.3,53.4,29.68,South,180,0.0,0.0,78,0.00,CLR,OVC,0.00,WeatherDisplay:10.37,2013-07-31 05:32:00,
2013-07-31 15:37:00,60.1,52.8,29.68,SW,225,0.0,0.0,77,0.00,CLR,OVC,0.00,WeatherDisplay:10.37,2013-07-31 05:37:00,
2013-07-31 15:42:00,59.9,52.7,29.68,WSW,248,0.0,0.0,77,0.00,CLR,OVC,0.00,WeatherDisplay:10.37,2013-07-31 05:42:00,
2013-07-31 15:47:00,59.7,52.1,29.68,SW,225,0.0,0.0,76,0.00,CLR,OVC,0.00,WeatherDisplay:10.37,2013-07-31 05:47:00,
2013-07-31 15:52:00,59.5,52.3,29.68,NNE,22,0.0,0.0,77,0.00,CLR,OVC,0.00,WeatherDisplay:10.37,2013-07-31 05:52:00,
2013-07-31 15:57:00,59.4,52.1,29.68,NW,315,0.0,0.0,77,0.00,CLR,OVC,0.00,WeatherDisplay:10.37,2013-07-31 05:57:00,
2013-07-31 16:02:00,59.2,51.6,29.68,West,270,2.3,0.0,76,0.00,CLR,OVC,0.00,WeatherDisplay:10.37,2013-07-31 06:02:00,
2013-07-31 16:07:00,59.0,51.4,29.68,WSW,248,0.0,0.0,76,0.00,CLR,OVC,0.00,WeatherDisplay:10.37,2013-07-31 06:07:00,
2013-07-31 16:12:00,58.8,51.3,29.68,SSW,202,0.0,0.0,76,0.00,CLR,OVC,0.00,WeatherDisplay:10.37,2013-07-31 06:12:00,
2013-07-31 16:17:00,58.6,51.1,29.68,NNW,338,2.3,0.0,76,0.00,CLR,OVC,0.00,WeatherDisplay:10.37,2013-07-31 06:17:00,
2013-07-31 16:22:00,58.6,51.4,29.68,WNW,292,2.3,2.4,77,0.00,CLR,OVC,0.00,WeatherDisplay:10.37,2013-07-31 06:22:00,
2013-07-31 16:27:00,58.5,51.3,29.68,WNW,292,1.2,0.0,77,0.00,CLR,OVC,0.00,WeatherDisplay:10.37,2013-07-31 06:27:00,
2013-07-31 16:32:00,58.3,51.1,29.68,WSW,248,0.0,0.0,77,0.00,CLR,OVC,0.00,WeatherDisplay:10.37,2013-07-31 06:32:00,
2013-07-31 16:37:00,58.1,50.9,29.68,West,270,2.3,2.3,77,0.00,CLR,OVC,0.00,WeatherDisplay:10.37,2013-07-31 06:37:00,
2013-07-31 16:42:00,57.9,50.8,29.68,SW,225,0.0,0.0,77,0.00,CLR,OVC,0.00,WeatherDisplay:10.37,2013-07-31 06:42:00,
2013-07-31 16:47:00,57.7,50.6,29.68,West,270,0.0,0.0,77,0.00,CLR,OVC,0.00,WeatherDisplay:10.37,2013-07-31 06:47:00,
2013-07-31 16:52:00,57.4,50.2,29.68,West,270,1.2,0.0,77,0.00,CLR,OVC,0.00,WeatherDisplay:10.37,2013-07-31 06:52:00,
2013-07-31 16:57:00,57.2,50.1,29.68,SW,225,0.0,0.0,77,0.00,CLR,OVC,0.00,WeatherDisplay:10.37,2013-07-31 06:57:00,
2013-07-31 17:02:00,57.0,49.9,29.68,SW,225,0.0,0.0,77,0.00,CLR,OVC,0.00,WeatherDisplay:10.37,2013-07-31 07:02:00,
2013-07-31 17:07:00,56.7,49.5,29.68,SW,225,0.0,0.0,77,0.00,CLR,OVC,0.00,WeatherDisplay:10.37,2013-07-31 07:07:00,
2013-07-31 17:12:00,56.5,49.4,29.68,SW,225,0.0,0.0,77,0.00,CLR,OVC,0.00,WeatherDisplay:10.37,2013-07-31 07:12:00,
2013-07-31 17:17:00,56.3,49.5,29.68,WNW,292,1.2,0.0,78,0.00,CLR,OVC,0.00,WeatherDisplay:10.37,2013-07-31 07:17:00,
2013-07-31 17:22:00,56.1,49.4,29.68,SSE,158,0.0,0.0,78,0.00,CLR,OVC,0.00,WeatherDisplay:10.37,2013-07-31 07:22:00,
2013-07-31 17:27:00,55.9,49.2,29.68,SW,225,0.0,0.0,78,0.00,CLR,OVC,0.00,WeatherDisplay:10.37,2013-07-31 07:27:00,
2013-07-31 17:32:00,55.8,49.3,29.68,WSW,248,0.0,0.0,79,0.00,CLR,OVC,0.00,WeatherDisplay:10.37,2013-07-31 07:32:00,
2013-07-31 17:37:00,55.8,49.7,29.68,NW,315,0.0,0.0,80,0.00,CLR,OVC,0.00,WeatherDisplay:10.37,2013-07-31 07:37:00,
2013-07-31 17:42:00,55.6,49.5,29.68,NW,315,0.0,0.0,80,0.00,CLR,OVC,0.00,WeatherDisplay:10.37,2013-07-31 07:42:00,
2013-07-31 17:47:00,55.6,49.5,29.71,West,270,0.0,0.0,80,0.00,CLR,OVC,0.00,WeatherDisplay:10.37,2013-07-31 07:47:00,
2013-07-31 17:52:00,55.4,49.3,29.71,West,270,0.0,0.0,80,0.00,CLR,OVC,0.00,WeatherDisplay:10.37,2013-07-31 07:52:00,
2013-07-31 17:57:00,55.0,49.0,29.71,SSW,202,0.0,0.0,80,0.00,CLR,OVC,0.00,WeatherDisplay:10.37,2013-07-31 07:57:00,
2013-07-31 18:02:00,54.9,48.8,29.71,West,270,0.0,0.0,80,0.00,CLR,OVC,0.00,WeatherDisplay:10.37,2013-07-31 08:02:00,
2013-07-31 18:07:00,54.5,48.5,29.71,SE,135,0.0,0.0,80,0.00,CLR,OVC,0.00,WeatherDisplay:10.37,2013-07-31 08:07:00,
2013-07-31 18:12:00,54.3,48.3,29.71,SE,135,0.0,0.0,80,0.00,CLR,OVC,0.00,WeatherDisplay:10.37,2013-07-31 08:12:00,
2013-07-31 18:17:00,54.0,47.6,29.71,SW,225,0.0,0.0,79,0.00,CLR,OVC,0.00,WeatherDisplay:10.37,2013-07-31 08:17:00,
2013-07-31 18:22:00,53.8,47.4,29.71,WSW,248,0.0,0.0,79,0.00,CLR,OVC,0.00,WeatherDisplay:10.37,2013-07-31 08:22:00,
2013-07-31 18:27:00,53.6,47.6,29.71,SSW,202,0.0,0.0,80,0.00,CLR,OVC,0.00,WeatherDisplay:10.37,2013-07-31 08:27:00,
2013-07-31 18:32:00,53.4,47.4,29.71,SSW,202,0.0,0.0,80,0.00,CLR,OVC,0.00,WeatherDisplay:10.37,2013-07-31 08:32:00,
2013-07-31 18:37:00,53.1,47.1,29.71,West,270,0.0,0.0,80,0.00,CLR,OVC,0.00,WeatherDisplay:10.37,2013-07-31 08:37:00,
2013-07-31 18:42:00,53.1,47.4,29.71,NE,45,0.0,0.0,81,0.00,CLR,OVC,0.00,WeatherDisplay:10.37,2013-07-31 08:42:00,
2013-07-31 18:47:00,52.9,47.2,29.74,NE,45,0.0,0.0,81,0.00,CLR,OVC,0.00,WeatherDisplay:10.37,2013-07-31 08:47:00,
2013-07-31 18:52:00,52.7,47.0,29.74,WSW,248,0.0,0.0,81,0.00,CLR,OVC,0.00,WeatherDisplay:10.37,2013-07-31 08:52:00,
2013-07-31 18:57:00,52.5,47.2,29.74,SW,225,0.0,0.0,82,0.00,CLR,OVC,0.00,WeatherDisplay:10.37,2013-07-31 08:57:00,
2013-07-31 19:02:00,52.5,47.2,29.74,West,270,0.0,0.0,82,0.00,CLR,OVC,0.00,WeatherDisplay:10.37,2013-07-31 09:02:00,
2013-07-31 19:07:00,52.3,47.0,29.74,West,270,0.0,0.0,82,0.00,CLR,OVC,0.00,WeatherDisplay:10.37,2013-07-31 09:07:00,
2013-07-31 19:13:00,52.3,47.0,29.74,West,270,0.0,0.0,82,0.00,CLR,OVC,0.00,WeatherDisplay:10.37,2013-07-31 09:13:00,
2013-07-31 19:18:00,52.2,47.2,29.74,West,270,0.0,0.0,83,0.00,CLR,OVC,0.00,WeatherDisplay:10.37,2013-07-31 09:18:00,
2013-07-31 19:23:00,52.0,47.0,29.74,West,270,0.0,0.0,83,0.00,CLR,OVC,0.00,WeatherDisplay:10.37,2013-07-31 09:23:00,
2013-07-31 19:28:00,51.8,46.8,29.74,SE,135,0.0,0.0,83,0.00,CLR,OVC,0.00,WeatherDisplay:10.37,2013-07-31 09:28:00,
2013-07-31 19:33:00,51.8,46.8,29.74,SE,135,0.0,0.0,83,0.00,CLR,OVC,0.00,WeatherDisplay:10.37,2013-07-31 09:33:00,
2013-07-31 19:38:00,51.4,46.1,29.74,SW,225,0.0,0.0,82,0.00,CLR,OVC,0.00,WeatherDisplay:10.37,2013-07-31 09:38:00,
2013-07-31 19:43:00,51.4,46.4,29.74,West,270,0.0,0.0,83,0.00,CLR,OVC,0.00,WeatherDisplay:10.37,2013-07-31 09:43:00,
2013-07-31 19:48:00,51.4,46.4,29.77,SW,225,0.0,0.0,83,0.00,CLR,OVC,0.00,WeatherDisplay:10.37,2013-07-31 09:48:00,
2013-07-31 19:53:00,51.3,46.6,29.77,SW,225,0.0,0.0,84,0.00,CLR,OVC,0.00,WeatherDisplay:10.37,2013-07-31 09:53:00,
2013-07-31 19:58:00,51.3,46.6,29.77,WNW,292,0.0,0.0,84,0.00,CLR,OVC,0.00,WeatherDisplay:10.37,2013-07-31 09:58:00,
2013-07-31 20:03:00,51.3,46.6,29.71,WNW,292,0.0,0.0,84,0.00,CLR,OVC,0.00,WeatherDisplay:10.37,2013-07-31 10:03:00,
2013-07-31 20:08:00,51.1,46.4,29.71,WNW,292,0.0,0.0,84,0.00,CLR,OVC,0.00,WeatherDisplay:10.37,2013-07-31 10:08:00,
2013-07-31 20:13:00,50.9,46.2,29.71,WNW,292,0.0,0.0,84,0.00,CLR,OVC,0.00,WeatherDisplay:10.37,2013-07-31 10:13:00,
2013-07-31 20:18:00,50.7,46.1,29.74,WNW,292,0.0,0.0,84,0.00,CLR,OVC,0.00,WeatherDisplay:10.37,2013-07-31 10:18:00,
2013-07-31 20:23:00,50.5,45.9,29.74,WNW,292,0.0,0.0,84,0.00,CLR,OVC,0.00,WeatherDisplay:10.37,2013-07-31 10:23:00,
2013-07-31 20:28:00,50.5,45.9,29.74,SSW,202,0.0,0.0,84,0.00,CLR,OVC,0.00,WeatherDisplay:10.37,2013-07-31 10:28:00,
2013-07-31 20:33:00,50.5,45.9,29.74,SE,135,0.0,0.0,84,0.00,CLR,OVC,0.00,WeatherDisplay:10.37,2013-07-31 10:33:00,
2013-07-31 20:38:00,50.5,46.2,29.74,SE,135,0.0,0.0,85,0.00,CLR,OVC,0.00,WeatherDisplay:10.37,2013-07-31 10:38:00,
2013-07-31 20:43:00,50.5,46.2,29.74,WNW,292,0.0,0.0,85,0.00,CLR,OVC,0.00,WeatherDisplay:10.37,2013-07-31 10:43:00,
2013-07-31 20:48:00,50.4,46.3,29.74,WNW,292,0.0,0.0,86,0.00,CLR,OVC,0.00,WeatherDisplay:10.37,2013-07-31 10:48:00,
2013-07-31 20:53:00,50.4,46.3,29.74,WNW,292,0.0,0.0,86,0.00,CLR,OVC,0.00,WeatherDisplay:10.37,2013-07-31 10:53:00,
2013-07-31 20:58:00,50.4,46.3,29.74,WNW,292,0.0,0.0,86,0.00,CLR,OVC,0.00,WeatherDisplay:10.37,2013-07-31 10:58:00,
2013-07-31 21:03:00,50.4,46.3,29.74,WNW,292,0.0,0.0,86,0.00,CLR,OVC,0.00,WeatherDisplay:10.37,2013-07-31 11:03:00,
2013-07-31 21:08:00,50.4,46.3,29.74,WNW,292,0.0,0.0,86,0.00,CLR,OVC,0.00,WeatherDisplay:10.37,2013-07-31 11:08:00,
2013-07-31 21:13:00,50.4,46.3,29.74,WNW,292,0.0,0.0,86,0.00,CLR,OVC,0.00,WeatherDisplay:10.37,2013-07-31 11:13:00,
2013-07-31 21:18:00,50.2,46.2,29.74,WNW,292,0.0,0.0,86,0.00,CLR,OVC,0.00,WeatherDisplay:10.37,2013-07-31 11:18:00,
2013-07-31 21:23:00,50.2,46.2,29.74,WNW,292,0.0,0.0,86,0.00,CLR,OVC,0.00,WeatherDisplay:10.37,2013-07-31 11:23:00,
2013-07-31 21:28:00,50.2,46.2,29.74,WNW,292,0.0,0.0,86,0.00,CLR,OVC,0.00,WeatherDisplay:10.37,2013-07-31 11:28:00,
2013-07-31 21:33:00,50.2,46.2,29.74,West,270,0.0,0.0,86,0.00,CLR,OVC,0.00,WeatherDisplay:10.37,2013-07-31 11:33:00,
2013-07-31 21:38:00,50.2,46.2,29.74,WNW,292,0.0,0.0,86,0.00,CLR,OVC,0.00,WeatherDisplay:10.37,2013-07-31 11:38:00,
2013-07-31 21:43:00,50.0,46.0,29.77,WNW,292,0.0,0.0,86,0.00,CLR,OVC,0.00,WeatherDisplay:10.37,2013-07-31 11:43:00,
2013-07-31 21:48:00,50.0,46.0,29.77,WNW,292,0.0,0.0,86,0.00,CLR,OVC,0.00,WeatherDisplay:10.37,2013-07-31 11:48:00,
2013-07-31 21:53:00,49.8,45.8,29.77,South,180,0.0,0.0,86,0.00,CLR,OVC,0.00,WeatherDisplay:10.37,2013-07-31 11:53:00,
2013-07-31 21:58:00,49.6,45.6,29.74,NE,45,0.0,0.0,86,0.00,CLR,OVC,0.00,WeatherDisplay:10.37,2013-07-31 11:58:00,
2013-07-31 22:03:00,49.5,45.4,29.74,West,270,0.0,0.0,86,0.00,CLR,OVC,0.00,WeatherDisplay:10.37,2013-07-31 12:03:00,
2013-07-31 22:08:00,49.5,45.4,29.74,West,270,0.0,0.0,86,0.00,CLR,OVC,0.00,WeatherDisplay:10.37,2013-07-31 12:08:00,
2013-07-31 22:13:00,49.3,45.3,29.74,WSW,248,0.0,0.0,86,0.00,CLR,OVC,0.00,WeatherDisplay:10.37,2013-07-31 12:13:00,
2013-07-31 22:18:00,49.1,44.8,29.74,WSW,248,0.0,0.0,85,0.00,CLR,OVC,0.00,WeatherDisplay:10.37,2013-07-31 12:18:00,
2013-07-31 22:23:00,49.1,44.8,29.74,WSW,248,0.0,0.0,85,0.00,CLR,OVC,0.00,WeatherDisplay:10.37,2013-07-31 12:23:00,
2013-07-31 22:28:00,48.9,44.6,29.74,WNW,292,0.0,0.0,85,0.00,CLR,OVC,0.00,WeatherDisplay:10.37,2013-07-31 12:28:00,
2013-07-31 22:33:00,48.7,44.4,29.74,WNW,292,0.0,0.0,85,0.00,CLR,OVC,0.00,WeatherDisplay:10.37,2013-07-31 12:33:00,
2013-07-31 22:38:00,48.7,44.4,29.74,West,270,0.0,0.0,85,0.00,CLR,OVC,0.00,WeatherDisplay:10.37,2013-07-31 12:38:00,
2013-07-31 22:43:00,48.6,44.3,29.74,West,270,0.0,0.0,85,0.00,CLR,OVC,0.00,WeatherDisplay:10.37,2013-07-31 12:43:00,
2013-07-31 22:48:00,48.6,44.3,29.74,West,270,0.0,0.0,85,0.00,CLR,OVC,0.00,WeatherDisplay:10.37,2013-07-31 12:48:00,
2013-07-31 22:53:00,48.6,44.3,29.74,West,270,0.0,0.0,85,0.00,CLR,OVC,0.00,WeatherDisplay:10.37,2013-07-31 12:53:00,
2013-07-31 22:58:00,48.4,44.1,29.74,West,270,0.0,0.0,85,0.00,CLR,OVC,0.00,WeatherDisplay:10.37,2013-07-31 12:58:00,
2013-07-31 23:03:00,48.4,44.4,29.74,West,270,0.0,0.0,86,0.00,CLR,OVC,0.00,WeatherDisplay:10.37,2013-07-31 13:03:00,
2013-07-31 23:08:00,48.4,44.4,29.74,NNW,338,0.0,0.0,86,0.00,CLR,OVC,0.00,WeatherDisplay:10.37,2013-07-31 13:08:00,
2013-07-31 23:13:00,48.4,44.4,29.74,NNE,22,0.0,0.0,86,0.00,CLR,OVC,0.00,WeatherDisplay:10.37,2013-07-31 13:13:00,
2013-07-31 23:18:00,48.2,44.2,29.74,ENE,68,0.0,0.0,86,0.00,CLR,OVC,0.00,WeatherDisplay:10.37,2013-07-31 13:18:00,
2013-07-31 23:23:00,48.2,44.2,29.74,ENE,68,0.0,0.0,86,0.00,CLR,OVC,0.00,WeatherDisplay:10.37,2013-07-31 13:23:00,
2013-07-31 23:28:00,48.0,44.0,29.74,SW,225,0.0,0.0,86,0.00,CLR,OVC,0.00,WeatherDisplay:10.37,2013-07-31 13:28:00,
2013-07-31 23:33:00,48.2,44.2,29.74,West,270,0.0,0.0,86,0.00,CLR,OVC,0.00,WeatherDisplay:10.37,2013-07-31 13:33:00,
2013-07-31 23:38:00,48.2,44.2,29.74,NNW,338,0.0,0.0,86,0.00,CLR,OVC,0.00,WeatherDisplay:10.37,2013-07-31 13:38:00,
2013-07-31 23:43:00,48.2,44.2,29.74,NW,315,0.0,0.0,86,0.00,CLR,OVC,0.00,WeatherDisplay:10.37,2013-07-31 13:43:00,
2013-07-31 23:48:00,48.2,44.5,29.74,NW,315,0.0,0.0,87,0.00,CLR,OVC,0.00,WeatherDisplay:10.37,2013-07-31 13:48:00,
2013-07-31 23:53:00,48.2,44.5,29.74,West,270,0.0,0.0,87,0.00,CLR,OVC,0.00,WeatherDisplay:10.37,2013-07-31 13:53:00,
2013-07-31 23:58:00,48.2,44.5,29.74,ESE,112,0.0,0.0,87,0.00,CLR,OVC,0.00,WeatherDisplay:10.37,2013-07-31 13:58:00,